Time;durP1;ratioP1;P1;durP2;ratioP2;P2;SDS_P1;SDS_P2;PMS_P1;PMS_P2;Temp;Humidity;BMP_temperature;BMP_pressure;BME280_temperature;BME280_humidity;BME280_pressure;Samples;Min_cycle;Max_cycle;Signal;HPM_P1;HPM_P2
2022/10/23 00:01:32;;;;;;;8.70;5.80;;;11.60;73.40;;;;;;6339784;22;20002;-81
2022/10/23 00:04:01;;;;;;;8.35;5.50;;;11.60;73.30;;;;;;6339439;22;20014;-80
2022/10/23 00:06:28;;;;;;;7.53;5.53;;;11.60;73.00;;;;;;6339635;22;20070;-80
2022/10/23 00:08:55;;;;;;;7.80;5.15;;;11.60;72.70;;;;;;6339869;22;20022;-80
2022/10/23 00:11:24;;;;;;;6.53;5.13;;;11.60;72.50;;;;;;6340110;22;20010;-80
2022/10/23 00:13:52;;;;;;;11.55;5.40;;;11.60;72.40;;;;;;6366592;22;20040;-82
2022/10/23 00:16:18;;;;;;;7.32;5.30;;;11.50;72.30;;;;;;6368508;22;20006;-83
2022/10/23 00:18:44;;;;;;;8.52;5.80;;;11.50;72.20;;;;;;6340026;22;20014;-82
2022/10/23 00:21:12;;;;;;;6.32;4.85;;;11.50;72.10;;;;;;6366442;22;20480;-83
2022/10/23 00:23:39;;;;;;;8.82;5.43;;;11.50;72.00;;;;;;6368008;22;20353;-83
2022/10/23 00:26:07;;;;;;;8.85;5.20;;;11.40;71.90;;;;;;6367856;22;20011;-83
2022/10/23 00:28:33;;;;;;;8.73;5.18;;;11.40;71.90;;;;;;6367031;22;20135;-83
2022/10/23 00:31:04;;;;;;;8.48;5.75;;;11.40;71.90;;;;;;6367774;22;20018;-81
2022/10/23 00:33:31;;;;;;;9.73;5.63;;;11.40;72.00;;;;;;6367869;22;20022;-83
2022/10/23 00:35:57;;;;;;;7.80;5.47;;;11.40;71.90;;;;;;6339966;22;20022;-84
2022/10/23 00:38:23;;;;;;;7.45;5.68;;;11.40;71.90;;;;;;6340050;22;20014;-83
2022/10/23 00:40:49;;;;;;;8.80;5.43;;;11.40;71.90;;;;;;6313940;22;20061;-83
2022/10/23 00:43:22;;;;;;;6.93;5.13;;;11.30;71.90;;;;;;6341174;22;20318;-83
2022/10/23 00:45:48;;;;;;;9.48;5.60;;;11.30;72.50;;;;;;6369099;22;20022;-83
2022/10/23 00:48:14;;;;;;;9.65;5.65;;;11.30;71.90;;;;;;6371228;22;20342;-83
2022/10/23 00:50:41;;;;;;;10.43;5.70;;;11.30;71.90;;;;;;6317459;22;20097;-82
2022/10/23 00:53:09;;;;;;;10.40;5.82;;;11.30;72.00;;;;;;6368414;22;20041;-82
2022/10/23 00:55:37;;;;;;;6.97;5.07;;;11.30;71.90;;;;;;6366745;22;20010;-82
2022/10/23 00:58:03;;;;;;;12.20;6.38;;;11.30;71.90;;;;;;6339908;22;20369;-82
2022/10/23 01:00:40;;;;;;;10.52;6.40;;;11.30;71.80;;;;;;6340596;22;20037;-83
2022/10/23 01:03:07;;;;;;;9.15;5.82;;;11.20;71.80;;;;;;6340185;22;20428;-82
2022/10/23 01:06:05;;;;;;;8.65;5.80;;;11.20;71.80;;;;;;6366830;22;20014;-81
2022/10/23 01:08:47;;;;;;;11.27;6.65;;;11.20;71.80;;;;;;6366451;22;20087;-81
2022/10/23 01:11:19;;;;;;;9.10;5.82;;;11.20;71.80;;;;;;6339896;22;20010;-81
2022/10/23 01:14:01;;;;;;;10.25;6.32;;;11.20;71.70;;;;;;6314179;22;20010;-81
2022/10/23 01:16:52;;;;;;;9.50;5.53;;;11.20;71.80;;;;;;6340315;22;20006;-80
2022/10/23 01:19:41;;;;;;;9.10;5.50;;;11.20;71.80;;;;;;6366368;22;20014;-79
2022/10/23 01:22:25;;;;;;;9.95;6.00;;;11.20;71.90;;;;;;6340081;22;20717;-81
2022/10/23 01:25:11;;;;;;;8.13;5.50;;;11.20;71.90;;;;;;6366096;22;20018;-80
2022/10/23 01:27:45;;;;;;;11.80;5.50;;;11.10;71.80;;;;;;6341083;22;20014;-80
2022/10/23 01:30:16;;;;;;;11.45;6.32;;;11.10;71.90;;;;;;6319017;22;20017;-80
2022/10/23 01:32:47;;;;;;;9.35;5.43;;;11.10;71.90;;;;;;6371033;22;20014;-80
2022/10/23 01:35:21;;;;;;;8.30;5.72;;;11.10;71.90;;;;;;6370557;22;20014;-80
2022/10/23 01:38:15;;;;;;;7.80;6.03;;;11.10;71.90;;;;;;6345014;22;20440;-81
2022/10/23 01:40:41;;;;;;;10.55;5.80;;;11.10;72.00;;;;;;6371742;22;20010;-81
2022/10/23 01:43:15;;;;;;;7.82;5.90;;;11.10;71.90;;;;;;6318460;22;20022;-81
2022/10/23 01:45:46;;;;;;;8.73;5.85;;;11.00;71.90;;;;;;6370785;22;20017;-81
2022/10/23 01:48:23;;;;;;;6.88;5.10;;;11.00;71.90;;;;;;6370899;22;20044;-80
2022/10/23 01:50:51;;;;;;;8.38;5.55;;;11.00;72.00;;;;;;6344622;22;20402;-80
2022/10/23 01:53:19;;;;;;;7.50;5.75;;;11.00;72.00;;;;;;6370827;22;20022;-81
2022/10/23 01:55:48;;;;;;;8.65;5.78;;;11.00;72.00;;;;;;6344765;22;20332;-80
2022/10/23 01:58:20;;;;;;;9.63;5.75;;;11.00;72.00;;;;;;6346077;22;20012;-80
2022/10/23 02:00:49;;;;;;;7.50;5.57;;;11.00;72.00;;;;;;6344467;22;20021;-81
2022/10/23 02:03:16;;;;;;;9.10;6.00;;;11.00;71.90;;;;;;6370564;22;20014;-79
2022/10/23 02:05:43;;;;;;;9.13;6.28;;;10.90;71.90;;;;;;6344608;22;20101;-81
2022/10/23 02:08:09;;;;;;;8.10;5.75;;;10.90;71.80;;;;;;6371097;22;20010;-79
2022/10/23 02:10:59;;;;;;;8.45;6.15;;;10.90;71.90;;;;;;6372727;22;20341;-80
2022/10/23 02:13:39;;;;;;;9.02;5.93;;;10.90;71.80;;;;;;6345192;22;20094;-82
2022/10/23 02:16:33;;;;;;;9.30;6.20;;;10.90;71.70;;;;;;6370979;22;20109;-81
2022/10/23 02:19:14;;;;;;;10.80;6.25;;;10.80;71.70;;;;;;6371346;22;20014;-80
2022/10/23 02:21:52;;;;;;;8.93;6.22;;;10.80;71.70;;;;;;6371213;22;20045;-81
2022/10/23 02:24:43;;;;;;;7.93;6.40;;;10.80;71.70;;;;;;6370701;22;20402;-82
2022/10/23 02:27:38;;;;;;;9.95;6.35;;;10.80;71.70;;;;;;6344157;22;20014;-83
2022/10/23 02:30:12;;;;;;;7.95;5.72;;;10.80;71.70;;;;;;6370048;22;20050;-82
2022/10/23 02:32:44;;;;;;;9.02;5.63;;;10.70;71.70;;;;;;6343895;22;20067;-82
2022/10/23 02:35:11;;;;;;;9.13;6.50;;;10.70;71.80;;;;;;6344214;22;20006;-83
2022/10/23 02:37:38;;;;;;;11.68;6.88;;;10.70;71.80;;;;;;6370906;22;20456;-83
2022/10/23 02:40:07;;;;;;;7.90;5.72;;;10.70;71.80;;;;;;6318200;22;20021;-83
2022/10/23 02:42:56;;;;;;;9.18;6.50;;;10.70;71.80;;;;;;6319140;22;20445;-81
2022/10/23 02:45:33;;;;;;;9.07;6.38;;;10.70;71.90;;;;;;6344449;22;20039;-82
2022/10/23 02:48:05;;;;;;;11.30;6.85;;;10.60;71.90;;;;;;6372586;22;20508;-83
2022/10/23 02:50:37;;;;;;;7.53;6.15;;;10.70;72.00;;;;;;6372676;22;20371;-82
2022/10/23 02:53:17;;;;;;;8.98;6.70;;;10.60;71.90;;;;;;6400543;22;20014;-82
2022/10/23 02:56:09;;;;;;;8.63;6.43;;;10.60;72.00;;;;;;6373221;22;20475;-83
2022/10/23 02:58:58;;;;;;;10.57;7.05;;;10.60;72.10;;;;;;6372665;22;20045;-82
2022/10/23 03:01:39;;;;;;;10.60;6.68;;;10.60;72.10;;;;;;6346445;22;20018;-84
2022/10/23 03:04:07;;;;;;;9.55;6.78;;;10.60;72.10;;;;;;6320259;22;20080;-84
2022/10/23 03:06:33;;;;;;;8.82;6.47;;;10.50;72.10;;;;;;6346231;22;20042;-85
2022/10/23 03:09:03;;;;;;;9.90;6.93;;;10.50;72.20;;;;;;6320220;22;20360;-82
2022/10/23 03:11:29;;;;;;;10.02;6.75;;;10.50;72.20;;;;;;6372771;22;20038;-85
2022/10/23 03:13:55;;;;;;;12.27;7.68;;;10.50;72.30;;;;;;6372626;22;20005;-84
2022/10/23 03:16:21;;;;;;;15.73;8.05;;;10.50;72.90;;;;;;6320914;22;20046;-84
2022/10/23 03:18:51;;;;;;;8.65;6.47;;;10.50;72.40;;;;;;6347009;22;20025;-84
2022/10/23 03:21:18;;;;;;;9.90;7.10;;;10.40;72.30;;;;;;6372919;22;20079;-84
2022/10/23 03:23:43;;;;;;;13.30;7.70;;;10.40;72.40;;;;;;6346522;22;20385;-83
2022/10/23 03:26:13;;;;;;;11.95;7.25;;;10.40;72.40;;;;;;6348478;22;20010;-82
2022/10/23 03:28:42;;;;;;;11.52;7.60;;;10.40;72.50;;;;;;6375287;22;20021;-82
2022/10/23 03:31:08;;;;;;;11.07;7.18;;;10.40;72.40;;;;;;6376354;22;20018;-80
2022/10/23 03:33:34;;;;;;;12.02;7.30;;;10.40;72.50;;;;;;6350542;22;20471;-83
2022/10/23 03:36:08;;;;;;;12.93;7.75;;;10.40;72.50;;;;;;6326659;22;20018;-82
2022/10/23 03:38:34;;;;;;;12.48;7.18;;;10.40;72.60;;;;;;6347126;22;20018;-83
2022/10/23 03:41:02;;;;;;;11.20;7.38;;;10.30;72.70;;;;;;6373125;22;20005;-82
2022/10/23 03:43:28;;;;;;;10.10;7.43;;;10.30;72.70;;;;;;6347447;22;20002;-82
2022/10/23 03:45:55;;;;;;;14.20;7.80;;;10.30;72.70;;;;;;6346643;22;20039;-81
2022/10/23 03:48:24;;;;;;;9.32;6.88;;;10.30;72.70;;;;;;6346631;22;20516;-81
2022/10/23 03:50:51;;;;;;;10.10;7.82;;;10.30;72.70;;;;;;6346603;22;20014;-82
2022/10/23 03:53:16;;;;;;;11.15;7.75;;;10.30;72.70;;;;;;6373060;22;20018;-81
2022/10/23 03:55:44;;;;;;;10.52;7.45;;;10.30;72.70;;;;;;6346919;22;20006;-81
2022/10/23 03:58:10;;;;;;;10.88;7.28;;;10.20;72.70;;;;;;6372501;22;20018;-81
2022/10/23 04:00:36;;;;;;;12.73;8.25;;;10.20;72.70;;;;;;6320354;22;20472;-81
2022/10/23 04:03:02;;;;;;;11.48;7.88;;;10.20;72.70;;;;;;6345971;22;20096;-81
2022/10/23 04:05:28;;;;;;;13.63;7.68;;;10.20;72.80;;;;;;6346342;22;20404;-82
2022/10/23 04:07:57;;;;;;;11.57;7.97;;;10.20;72.90;;;;;;6345909;22;20014;-81
2022/10/23 04:10:23;;;;;;;11.02;7.22;;;10.20;72.90;;;;;;6346348;22;20429;-82
2022/10/23 04:12:50;;;;;;;10.75;8.10;;;10.20;72.90;;;;;;6371986;22;20013;-82
2022/10/23 04:15:16;;;;;;;13.93;8.73;;;10.20;72.90;;;;;;6320057;22;20013;-81
2022/10/23 04:17:44;;;;;;;11.85;7.32;;;10.20;72.90;;;;;;6346150;22;20014;-82
2022/10/23 04:20:11;;;;;;;10.90;7.47;;;10.20;73.00;;;;;;6319864;22;20010;-83
2022/10/23 04:22:37;;;;;;;11.40;7.82;;;10.20;72.90;;;;;;6372994;22;20017;-82
2022/10/23 04:25:03;;;;;;;12.77;8.63;;;10.20;73.00;;;;;;6372307;22;20010;-83
2022/10/23 04:27:33;;;;;;;11.95;7.72;;;10.10;72.90;;;;;;6372537;22;20013;-83
2022/10/23 04:30:00;;;;;;;9.95;7.05;;;10.10;73.00;;;;;;6346026;22;20014;-83
2022/10/23 04:32:26;;;;;;;12.10;8.05;;;10.10;72.90;;;;;;6372179;22;20014;-84
2022/10/23 04:34:52;;;;;;;10.88;7.15;;;10.10;73.00;;;;;;6371425;22;20010;-84
2022/10/23 04:37:18;;;;;;;15.98;9.35;;;10.10;72.90;;;;;;6345843;22;20059;-82
2022/10/23 04:39:44;;;;;;;12.93;8.13;;;10.10;73.00;;;;;;6371815;22;20101;-82
2022/10/23 04:42:12;;;;;;;13.63;8.50;;;10.10;73.00;;;;;;6345785;22;20021;-81
2022/10/23 04:44:39;;;;;;;13.73;8.40;;;10.10;73.00;;;;;;6371028;22;20021;-81
2022/10/23 04:47:05;;;;;;;13.52;8.45;;;10.10;73.00;;;;;;6371943;22;20005;-81
2022/10/23 04:49:34;;;;;;;12.07;8.05;;;10.10;73.10;;;;;;6373543;22;20006;-81
2022/10/23 04:52:20;;;;;;;14.52;9.02;;;10.00;73.10;;;;;;6373647;22;20020;-80
2022/10/23 04:55:02;;;;;;;13.15;8.10;;;10.10;73.10;;;;;;6371331;22;20390;-81
2022/10/23 04:57:40;;;;;;;15.27;8.50;;;10.10;73.10;;;;;;6372162;22;20028;-81
2022/10/23 05:00:11;;;;;;;11.93;8.15;;;10.10;73.20;;;;;;6371903;22;20475;-80
2022/10/23 05:02:48;;;;;;;14.98;9.68;;;10.10;73.20;;;;;;6345299;22;20028;-80
2022/10/23 05:05:16;;;;;;;13.43;9.10;;;10.10;73.10;;;;;;6399635;22;20352;-79
2022/10/23 05:08:01;;;;;;;15.02;9.32;;;10.20;73.10;;;;;;6371384;22;20105;-80
2022/10/23 05:10:48;;;;;;;13.30;9.00;;;10.20;73.00;;;;;;6400144;22;20445;-80
2022/10/23 05:13:18;;;;;;;15.63;9.30;;;10.30;72.90;;;;;;6370975;22;20033;-78
2022/10/23 05:15:46;;;;;;;13.77;9.68;;;10.20;72.70;;;;;;6398686;22;20018;-78
2022/10/23 05:18:36;;;;;;;18.23;9.55;;;10.30;72.80;;;;;;6370614;22;20014;-79
2022/10/23 05:21:12;;;;;;;14.82;9.68;;;10.20;72.80;;;;;;6370375;22;20018;-78
2022/10/23 05:23:41;;;;;;;18.20;9.55;;;10.30;72.80;;;;;;6344588;22;20044;-77
2022/10/23 05:26:07;;;;;;;15.32;10.00;;;10.30;72.80;;;;;;6370462;22;20013;-79
2022/10/23 05:28:35;;;;;;;15.75;9.50;;;10.30;72.90;;;;;;6319558;22;20014;-79
2022/10/23 05:31:04;;;;;;;14.93;10.45;;;10.20;72.90;;;;;;6318561;22;20018;-79
2022/10/23 05:33:32;;;;;;;19.08;10.20;;;10.30;73.00;;;;;;6370851;22;20025;-78
2022/10/23 05:36:00;;;;;;;16.20;9.48;;;10.20;72.90;;;;;;6397536;22;20018;-78
2022/10/23 05:38:31;;;;;;;16.13;10.50;;;10.30;73.00;;;;;;6370609;22;20014;-78
2022/10/23 05:41:02;;;;;;;16.75;10.13;;;10.30;73.00;;;;;;6345820;22;20009;-77
2022/10/23 05:43:30;;;;;;;17.05;10.77;;;10.30;73.00;;;;;;6371580;22;20005;-77
2022/10/23 05:46:06;;;;;;;17.70;9.25;;;10.30;73.00;;;;;;6346958;22;20432;-78
2022/10/23 05:48:33;;;;;;;16.90;10.48;;;10.30;73.10;;;;;;6398610;22;20021;-78
2022/10/23 05:51:09;;;;;;;16.10;10.30;;;10.20;73.10;;;;;;6398289;22;20021;-77
2022/10/23 05:53:49;;;;;;;15.93;10.68;;;10.30;73.20;;;;;;6320392;22;20110;-79
2022/10/23 05:56:25;;;;;;;14.50;9.73;;;10.20;73.20;;;;;;6370383;22;20014;-80
2022/10/23 05:59:20;;;;;;;15.02;10.13;;;10.20;73.20;;;;;;6370825;22;20009;-81
2022/10/23 06:02:06;;;;;;;16.70;10.05;;;10.20;73.30;;;;;;6269797;22;20174;-80
2022/10/23 06:04:45;;;;;;;16.13;10.60;;;10.20;73.30;;;;;;6249158;22;20007;-83
2022/10/23 06:07:34;;;;;;;17.02;10.50;;;10.20;73.30;;;;;;6265329;22;20083;-85
2022/10/23 06:10:04;;;;;;;17.15;10.77;;;10.20;73.30;;;;;;6255098;22;20019;-85
2022/10/23 06:12:32;;;;;;;14.35;9.93;;;10.20;73.40;;;;;;6274035;22;20015;-85
2022/10/23 06:14:58;;;;;;;12.98;8.98;;;10.20;73.40;;;;;;6219412;22;20023;-88
2022/10/23 06:17:36;;;;;;;15.70;9.90;;;10.30;73.50;;;;;;6245387;22;20068;-81
2022/10/23 06:20:03;;;;;;;20.50;10.93;;;10.20;73.40;;;;;;6245730;22;20011;-82
2022/10/23 06:22:34;;;;;;;17.73;10.20;;;10.20;73.40;;;;;;6272009;22;20083;-85
2022/10/23 06:25:14;;;;;;;19.45;11.00;;;10.30;73.40;;;;;;6244997;22;20016;-81
2022/10/23 06:27:40;;;;;;;18.27;11.40;;;10.30;73.40;;;;;;6245583;22;20078;-80
2022/10/23 06:30:08;;;;;;;17.90;10.30;;;10.30;73.50;;;;;;6245328;22;20027;-82
2022/10/23 06:32:34;;;;;;;19.75;10.77;;;10.30;73.50;;;;;;6245933;22;20024;-84
2022/10/23 06:35:09;;;;;;;17.70;11.18;;;10.30;73.60;;;;;;6245502;22;20019;-82
2022/10/23 06:37:36;;;;;;;18.67;10.38;;;10.30;73.60;;;;;;6246243;22;20019;-90
2022/10/23 06:40:09;;;;;;;17.23;10.32;;;10.30;73.50;;;;;;6332517;22;20499;-90
2022/10/23 06:42:56;;;;;;;16.17;10.18;;;10.30;73.40;;;;;;6371525;22;20018;-84
2022/10/23 06:45:22;;;;;;;18.00;10.73;;;10.30;73.40;;;;;;6399972;22;20029;-80
2022/10/23 06:48:17;;;;;;;15.98;10.70;;;10.40;73.50;;;;;;6357266;22;20018;-82
2022/10/23 06:51:15;;;;;;;18.65;9.85;;;10.30;73.40;;;;;;6351105;22;20022;-80
2022/10/23 06:53:44;;;;;;;16.70;10.02;;;10.40;73.30;;;;;;6344158;22;20018;-83
2022/10/23 06:56:31;;;;;;;17.45;10.88;;;10.40;73.30;;;;;;6370205;22;20020;-82
2022/10/23 06:58:58;;;;;;;16.70;10.50;;;10.40;73.30;;;;;;6352629;22;20334;-84
2022/10/23 07:01:27;;;;;;;16.67;9.60;;;10.50;74.80;;;;;;6347127;22;20399;-79
2022/10/23 07:03:55;;;;;;;17.17;9.10;;;10.60;76.30;;;;;;6397834;22;20022;-77
2022/10/23 07:06:25;;;;;;;17.73;9.38;;;10.60;76.10;;;;;;6368841;22;20014;-79
2022/10/23 07:08:51;;;;;;;15.48;9.55;;;10.60;75.60;;;;;;6368688;22;20490;-80
2022/10/23 07:11:52;;;;;;;16.85;9.10;;;10.70;75.80;;;;;;6368281;22;20022;-80
2022/10/23 07:14:24;;;;;;;13.48;8.75;;;10.80;76.10;;;;;;6368749;22;20022;-83
2022/10/23 07:16:50;;;;;;;17.15;8.75;;;10.80;76.30;;;;;;6316438;22;20016;-80
2022/10/23 07:19:16;;;;;;;22.10;9.85;;;10.90;76.40;;;;;;6369410;22;20010;-82
2022/10/23 07:21:42;;;;;;;17.25;9.57;;;10.90;76.30;;;;;;6397097;22;20028;-80
2022/10/23 07:24:26;;;;;;;14.15;9.27;;;11.00;76.40;;;;;;6346651;22;20014;-79
2022/10/23 07:26:54;;;;;;;14.75;8.73;;;11.00;76.30;;;;;;6368543;22;20499;-80
2022/10/23 07:29:22;;;;;;;15.43;9.55;;;11.10;76.20;;;;;;6343183;22;20066;-80
2022/10/23 07:31:49;;;;;;;14.07;9.02;;;11.00;76.00;;;;;;6369428;22;20253;-79
2022/10/23 07:34:31;;;;;;;14.05;9.13;;;11.10;75.90;;;;;;6348248;22;20059;-78
2022/10/23 07:37:15;;;;;;;15.98;10.00;;;11.10;76.00;;;;;;6398729;22;20021;-80
2022/10/23 07:39:41;;;;;;;15.27;9.65;;;11.20;75.90;;;;;;6344187;22;20010;-77
2022/10/23 07:42:08;;;;;;;14.68;9.35;;;11.20;75.70;;;;;;6370946;22;20017;-79
2022/10/23 07:44:34;;;;;;;15.63;9.02;;;11.20;75.70;;;;;;6370919;22;20479;-81
2022/10/23 07:47:00;;;;;;;16.23;9.80;;;11.30;76.00;;;;;;6369897;22;20017;-83
2022/10/23 07:49:27;;;;;;;13.65;9.32;;;11.30;75.90;;;;;;6318627;22;20017;-82
2022/10/23 07:51:53;;;;;;;14.95;9.48;;;11.30;75.80;;;;;;6343126;22;20017;-77
2022/10/23 07:54:19;;;;;;;14.18;9.70;;;11.40;76.00;;;;;;6369372;22;20234;-79
2022/10/23 07:57:06;;;;;;;18.00;10.23;;;11.40;76.00;;;;;;6375103;22;20043;-83
2022/10/23 07:59:39;;;;;;;16.30;9.13;;;11.40;76.50;;;;;;6368616;22;20302;-76
2022/10/23 08:02:14;;;;;;;18.27;9.85;;;11.50;76.80;;;;;;6368498;22;20014;-77
2022/10/23 08:04:41;;;;;;;16.40;9.65;;;11.50;77.10;;;;;;6344118;22;20009;-76
2022/10/23 08:07:20;;;;;;;16.20;10.90;;;11.50;77.20;;;;;;6343477;22;20055;-77
2022/10/23 08:09:48;;;;;;;16.35;10.43;;;11.50;76.80;;;;;;6369821;22;20502;-77
2022/10/23 08:12:15;;;;;;;18.05;10.65;;;11.60;76.70;;;;;;6369706;22;20026;-76
2022/10/23 08:14:41;;;;;;;17.83;10.63;;;11.60;76.40;;;;;;6343214;22;20112;-78
2022/10/23 08:17:08;;;;;;;20.85;11.48;;;11.60;76.10;;;;;;6343056;22;20056;-77
2022/10/23 08:19:52;;;;;;;17.05;9.82;;;11.60;76.00;;;;;;6398053;22;20399;-80
2022/10/23 08:22:19;;;;;;;18.15;10.23;;;11.70;76.00;;;;;;6370473;22;20009;-76
2022/10/23 08:24:45;;;;;;;19.02;10.27;;;11.70;76.30;;;;;;6370093;22;20361;-82
2022/10/23 08:27:12;;;;;;;20.88;11.25;;;11.80;76.70;;;;;;6369673;22;20014;-79
2022/10/23 08:29:44;;;;;;;17.25;10.10;;;11.80;76.70;;;;;;6343622;22;20022;-75
2022/10/23 08:32:10;;;;;;;20.05;11.02;;;11.80;77.30;;;;;;6342983;22;20017;-76
2022/10/23 08:34:57;;;;;;;20.25;11.30;;;11.80;76.90;;;;;;6369685;22;20062;-76
2022/10/23 08:37:24;;;;;;;22.60;11.70;;;11.90;77.20;;;;;;6398325;22;20005;-76
2022/10/23 08:39:50;;;;;;;17.48;11.23;;;11.90;77.30;;;;;;6397863;22;20020;-76
2022/10/23 08:42:25;;;;;;;18.45;11.38;;;11.90;77.60;;;;;;6369392;22;20055;-75
2022/10/23 08:45:09;;;;;;;18.38;11.15;;;11.90;77.50;;;;;;6369559;22;20399;-76
2022/10/23 08:47:45;;;;;;;20.05;11.88;;;11.90;77.10;;;;;;6369406;22;20018;-74
2022/10/23 08:50:43;;;;;;;22.90;13.18;;;12.00;76.70;;;;;;6374396;22;20014;-74
2022/10/23 08:53:19;;;;;;;20.13;12.20;;;12.00;75.90;;;;;;6369570;22;20010;-74
2022/10/23 08:56:22;;;;;;;19.52;11.85;;;11.90;74.80;;;;;;6343871;22;20006;-74
2022/10/23 08:59:04;;;;;;;17.90;12.10;;;11.90;75.30;;;;;;6299008;22;20015;-74
2022/10/23 09:01:48;;;;;;;25.33;12.55;;;11.90;75.40;;;;;;6300367;22;20025;-74
2022/10/23 09:04:15;;;;;;;19.15;11.70;;;11.90;75.10;;;;;;6274215;22;20448;-75
2022/10/23 09:07:02;;;;;;;20.88;12.55;;;11.90;75.00;;;;;;6273899;22;20023;-74
2022/10/23 09:10:06;;;;;;;20.38;12.05;;;11.90;74.70;;;;;;6299814;22;20388;-73
2022/10/23 09:12:32;;;;;;;26.27;13.68;;;11.90;74.40;;;;;;6182345;23;20028;-73
2022/10/23 09:15:00;;;;;;;19.10;11.70;;;11.90;74.20;;;;;;6207680;23;20028;-73
2022/10/23 09:17:31;;;;;;;20.55;12.32;;;11.90;74.20;;;;;;6182669;23;20024;-74
2022/10/23 09:20:20;;;;;;;25.05;12.63;;;11.90;74.40;;;;;;6207974;23;20562;-74
2022/10/23 09:22:48;;;;;;;20.08;11.88;;;11.90;74.50;;;;;;6208617;23;20013;-74
2022/10/23 09:25:20;;;;;;;20.98;12.52;;;11.90;74.10;;;;;;6182770;23;20017;-74
2022/10/23 09:27:54;;;;;;;19.10;12.02;;;11.90;73.90;;;;;;6207509;23;20392;-72
2022/10/23 09:30:28;;;;;;;22.13;12.35;;;11.90;73.90;;;;;;6207654;23;20388;-74
2022/10/23 09:32:54;;;;;;;29.95;13.93;;;11.90;74.00;;;;;;6198772;23;20020;-74
2022/10/23 09:35:25;;;;;;;23.08;12.60;;;11.90;73.90;;;;;;6212503;23;20095;-75
2022/10/23 09:37:52;;;;;;;22.70;12.48;;;11.90;73.80;;;;;;6238099;23;20015;-74
2022/10/23 09:40:32;;;;;;;23.90;12.38;;;11.90;74.00;;;;;;6213538;23;20012;-75
2022/10/23 09:43:12;;;;;;;21.85;12.13;;;11.90;74.10;;;;;;6238067;23;20516;-75
2022/10/23 09:45:41;;;;;;;22.48;11.80;;;11.90;74.50;;;;;;6212691;23;20020;-75
2022/10/23 09:48:16;;;;;;;22.80;13.02;;;12.00;74.20;;;;;;6237856;23;20510;-74
2022/10/23 09:50:51;;;;;;;21.42;12.23;;;12.00;74.10;;;;;;6339350;22;20422;-74
2022/10/23 09:53:38;;;;;;;25.38;12.68;;;12.00;74.10;;;;;;6396808;22;20455;-75
2022/10/23 09:56:19;;;;;;;20.73;12.65;;;12.00;74.00;;;;;;6396705;22;20029;-74
2022/10/23 09:58:57;;;;;;;23.75;12.88;;;12.00;73.80;;;;;;6397964;22;20002;-74
2022/10/23 10:01:44;;;;;;;23.33;13.05;;;12.00;73.60;;;;;;6316912;22;20039;-75
2022/10/23 10:04:40;;;;;;;23.42;12.27;;;12.00;73.70;;;;;;6396464;22;20017;-75
2022/10/23 10:07:18;;;;;;;24.77;12.77;;;11.90;73.80;;;;;;6368600;22;20365;-74
2022/10/23 10:09:44;;;;;;;22.48;12.82;;;12.00;73.90;;;;;;6397582;22;20041;-74
2022/10/23 10:12:28;;;;;;;21.45;12.55;;;11.90;73.90;;;;;;6368974;22;20024;-74
2022/10/23 10:15:14;;;;;;;22.40;12.85;;;11.90;73.90;;;;;;6397003;22;20071;-74
2022/10/23 10:17:57;;;;;;;;;;;12.00;73.90;;;;;;6375430;22;20018;-74
2022/10/23 10:20:25;;;;;;;19.75;12.57;;;11.90;73.70;;;;;;6368927;22;20252;-75
2022/10/23 10:23:26;;;;;;;19.88;11.82;;;12.00;73.70;;;;;;6369052;22;20096;-73
2022/10/23 10:25:58;;;;;;;23.20;12.93;;;11.90;73.90;;;;;;6268343;22;20007;-75
2022/10/23 10:28:32;;;;;;;24.50;12.90;;;12.00;74.30;;;;;;6243043;22;20094;-75
2022/10/23 10:31:14;;;;;;;22.83;13.00;;;12.00;74.10;;;;;;6268543;22;20081;-75
2022/10/23 10:33:48;;;;;;;22.58;12.57;;;12.00;74.20;;;;;;6242595;22;20023;-74
2022/10/23 10:36:39;;;;;;;33.22;13.68;;;12.00;74.10;;;;;;6268120;22;20027;-75
2022/10/23 10:39:33;;;;;;;24.30;13.10;;;12.00;74.10;;;;;;6268388;22;20026;-74
2022/10/23 10:42:05;;;;;;;22.75;12.85;;;12.00;74.20;;;;;;6231930;22;20012;-74
2022/10/23 10:44:56;;;;;;;26.92;14.43;;;12.00;74.10;;;;;;6268345;22;20020;-74
2022/10/23 10:47:41;;;;;;;23.80;13.05;;;11.90;74.10;;;;;;6242327;22;20015;-75
2022/10/23 10:50:43;;;;;;;23.20;12.82;;;12.00;74.30;;;;;;6268441;22;20007;-75
2022/10/23 10:54:05;;;;;;;22.80;13.35;;;12.00;74.50;;;;;;6152236;23;20071;-75
2022/10/23 10:56:37;;;;;;;24.55;13.20;;;12.00;74.40;;;;;;6164669;23;20021;-74
2022/10/23 10:59:27;;;;;;;25.95;14.55;;;12.00;74.40;;;;;;6176899;23;20060;-74
2022/10/23 11:02:36;;;;;;;28.38;14.73;;;11.90;74.50;;;;;;6217329;22;20011;-74
2022/10/23 11:05:16;;;;;;;29.30;15.00;;;12.00;74.50;;;;;;6299374;22;20015;-74
2022/10/23 11:08:13;;;;;;;26.58;14.68;;;12.00;74.70;;;;;;6249600;22;20516;-74
2022/10/23 11:10:44;;;;;;;;;;;12.00;74.80;;;;;;6293663;22;20050;-74
2022/10/23 11:13:28;;;;;;;27.08;13.65;;;11.90;74.70;;;;;;6275023;22;20040;-74
2022/10/23 11:16:00;;;;;;;27.95;13.65;;;12.00;74.80;;;;;;6301371;22;20410;-74
2022/10/23 11:18:29;;;;;;;26.88;14.23;;;12.00;74.90;;;;;;6300964;22;20037;-75
2022/10/23 11:21:26;;;;;;;25.73;13.32;;;11.90;74.90;;;;;;6301441;22;20477;-74
2022/10/23 11:24:13;;;;;;;28.73;15.15;;;12.00;75.00;;;;;;6298583;22;20023;-74
2022/10/23 11:26:57;;;;;;;24.33;14.07;;;12.00;74.90;;;;;;6300896;22;20023;-74
2022/10/23 11:29:44;;;;;;;27.15;14.98;;;12.00;75.00;;;;;;6346746;22;20025;-74
2022/10/23 11:32:34;;;;;;;26.67;14.52;;;12.00;74.90;;;;;;6398482;22;20456;-75
2022/10/23 11:35:21;;;;;;;24.30;13.60;;;12.00;75.00;;;;;;6398266;22;20018;-74
2022/10/23 11:38:18;;;;;;;29.73;13.88;;;12.00;75.00;;;;;;6398245;22;20093;-74
2022/10/23 11:40:51;;;;;;;23.23;13.30;;;12.00;75.10;;;;;;6399138;22;20089;-74
2022/10/23 11:43:46;;;;;;;27.58;14.32;;;12.00;75.00;;;;;;6370500;22;20618;-74
2022/10/23 11:46:28;;;;;;;23.88;13.48;;;12.00;75.10;;;;;;6398729;22;20049;-74
2022/10/23 11:48:55;;;;;;;31.00;14.80;;;12.00;75.10;;;;;;6398509;22;20017;-74
2022/10/23 11:51:30;;;;;;;26.13;13.43;;;12.00;75.10;;;;;;6370003;22;20503;-74
2022/10/23 11:54:15;;;;;;;28.48;14.82;;;12.00;75.20;;;;;;6370099;22;20349;-74
2022/10/23 11:57:12;;;;;;;26.92;14.18;;;12.00;75.20;;;;;;6398215;22;20024;-74
2022/10/23 11:59:57;;;;;;;30.48;14.88;;;12.00;75.20;;;;;;6397961;22;20014;-74
2022/10/23 12:02:37;;;;;;;31.80;14.68;;;12.00;75.30;;;;;;6398118;22;20020;-74
2022/10/23 12:05:24;;;;;;;30.85;14.52;;;12.00;75.40;;;;;;6369680;22;20014;-74
2022/10/23 12:07:58;;;;;;;26.30;14.10;;;12.00;75.50;;;;;;6398023;22;20016;-75
2022/10/23 12:10:34;;;;;;;28.15;14.90;;;12.00;75.60;;;;;;6370721;22;20334;-75
2022/10/23 12:13:04;;;;;;;31.02;15.55;;;12.00;75.60;;;;;;6397526;22;20481;-73
2022/10/23 12:15:33;;;;;;;28.83;14.60;;;12.00;75.60;;;;;;6398015;22;20466;-73
2022/10/23 12:18:17;;;;;;;26.63;14.00;;;12.00;75.70;;;;;;6369401;22;20033;-73
2022/10/23 12:20:59;;;;;;;28.90;15.05;;;12.00;75.80;;;;;;6398326;22;20041;-73
2022/10/23 12:23:52;;;;;;;27.67;14.35;;;12.00;75.80;;;;;;6343418;22;20484;-75
2022/10/23 12:26:33;;;;;;;25.77;13.23;;;12.00;75.80;;;;;;6398564;22;20476;-75
2022/10/23 12:29:41;;;;;;;26.17;14.20;;;12.00;75.90;;;;;;6398039;22;20267;-75
2022/10/23 12:32:19;;;;;;;27.23;14.18;;;12.00;76.00;;;;;;6370068;22;20140;-75
2022/10/23 12:34:54;;;;;;;25.13;14.18;;;12.00;76.10;;;;;;6398765;22;20521;-75
2022/10/23 12:37:50;;;;;;;28.45;14.60;;;12.00;76.20;;;;;;6369851;22;20013;-73
2022/10/23 12:40:16;;;;;;;22.67;13.55;;;11.90;76.20;;;;;;6398162;22;20017;-73
2022/10/23 12:42:51;;;;;;;25.00;13.90;;;12.00;76.40;;;;;;6369185;22;20037;-74
2022/10/23 12:45:35;;;;;;;24.67;14.10;;;12.00;76.40;;;;;;6397933;22;20105;-73
2022/10/23 12:48:01;;;;;;;25.27;15.05;;;12.00;76.50;;;;;;6397584;22;20354;-73
2022/10/23 12:50:29;;;;;;;28.33;15.55;;;12.00;76.60;;;;;;6397345;22;20039;-73
2022/10/23 12:53:07;;;;;;;26.30;15.25;;;12.00;76.60;;;;;;6368909;22;20005;-73
2022/10/23 12:56:00;;;;;;;26.17;15.13;;;12.00;76.50;;;;;;6343937;22;20081;-73
2022/10/23 12:58:32;;;;;;;27.02;16.13;;;12.00;76.50;;;;;;6369397;22;20021;-74
2022/10/23 13:01:04;;;;;;;30.48;16.45;;;12.00;76.50;;;;;;6369343;22;20368;-73
2022/10/23 13:03:32;;;;;;;24.55;14.55;;;12.00;76.60;;;;;;6396858;22;20026;-74
2022/10/23 13:06:03;;;;;;;28.08;15.60;;;12.00;76.70;;;;;;6369715;22;20026;-73
2022/10/23 13:08:44;;;;;;;27.42;15.88;;;12.00;76.70;;;;;;6369182;22;20098;-73
2022/10/23 13:11:33;;;;;;;29.90;15.52;;;12.00;76.70;;;;;;6369545;22;20022;-73
2022/10/23 13:14:10;;;;;;;28.35;15.50;;;12.00;76.70;;;;;;6369405;22;20010;-74
2022/10/23 13:16:36;;;;;;;22.80;14.00;;;12.00;76.80;;;;;;6369778;22;20082;-74